Zitkovici, Belarus
Current Conditions -  °F | °C
As of 7:30 PM on Tuesday 21 Oct 2014 (Local Time) from UMMM Reporting Station
Broken Clouds Broken Clouds  
Wind Chill: 50°   Ceiling: 1800
Heat Index: 50°   Visibility: 6mi
Dew Point: 45°   Wind: 9mph
Humidity: 82%   Direction: 330°NNW
Pressure: 29.62"   Gusts: NA
Location:  52.22°N, 27.87°E
Report Text: UMMM 211730Z 33004MPS 9999 BKN018 10/07 Q1003 R30/290050NOSIG RMK QFE733
Loading
Personal Weather Stations






























Interactive Weather Map
Tropical Storm Tracking
New forecast layout! Learn more

10-Day Weather Forecast

Advertisements
Track Severe Weather on mobile